createdAt,value
2022-11-27T00:00:00.000Z,15.35
2022-11-27T00:15:00.000Z,15.33
2022-11-27T00:30:00.000Z,14.2
2022-11-27T00:45:00.000Z,14.53
2022-11-27T01:00:00.000Z,13.85
2022-11-27T01:15:00.000Z,12.07
2022-11-27T01:30:00.000Z,10.73
2022-11-27T01:45:00.000Z,10.79
2022-11-27T02:00:00.000Z,9.45
2022-11-27T02:15:00.000Z,9.51
2022-11-27T02:30:00.000Z,10.24
2022-11-27T02:45:00.000Z,9.69
2022-11-27T03:00:00.000Z,10.38
2022-11-27T03:15:00.000Z,10.77
2022-11-27T03:30:00.000Z,9.56
2022-11-27T03:45:00.000Z,9.84
2022-11-27T04:00:00.000Z,10.59
2022-11-27T04:15:00.000Z,10.78
2022-11-27T04:30:00.000Z,10.48
2022-11-27T04:45:00.000Z,10.26
2022-11-27T05:00:00.000Z,8.41
2022-11-27T05:15:00.000Z,20.41
2022-11-27T05:30:00.000Z,11.58
2022-11-27T05:45:00.000Z,19.53
2022-11-27T06:00:00.000Z,10.29
2022-11-27T06:15:00.000Z,10.22
2022-11-27T06:30:00.000Z,13.05
2022-11-27T06:45:00.000Z,12.31
2022-11-27T07:00:00.000Z,11.61
2022-11-27T07:15:00.000Z,12.46
2022-11-27T07:30:00.000Z,11.87
2022-11-27T07:45:00.000Z,13.15
2022-11-27T08:00:00.000Z,12.53
2022-11-27T08:15:00.000Z,12.94
2022-11-27T08:30:00.000Z,12.66
2022-11-27T08:45:00.000Z,17.49
2022-11-27T09:15:00.000Z,11
2022-11-27T09:15:00.000Z,11.56
2022-11-27T09:30:00.000Z,11.59
2022-11-27T09:45:00.000Z,14.95
2022-11-27T10:00:00.000Z,12.65
2022-11-27T10:15:00.000Z,14.33
2022-11-27T10:30:00.000Z,16.65
2022-11-27T10:45:00.000Z,14.8
2022-11-27T11:00:00.000Z,13.58
2022-11-27T11:15:00.000Z,14.44
2022-11-27T11:30:00.000Z,13.13
2022-11-27T11:45:00.000Z,11.24
2022-11-27T12:00:00.000Z,12.73
2022-11-27T12:15:00.000Z,11.59
2022-11-27T12:30:00.000Z,15.51
2022-11-27T12:45:00.000Z,12.65
2022-11-27T13:00:00.000Z,13.16
2022-11-27T13:15:00.000Z,12.46
2022-11-27T13:30:00.000Z,11.67
2022-11-27T14:00:00.000Z,14
2022-11-27T14:00:00.000Z,14.02
2022-11-27T14:15:00.000Z,13.8
2022-11-27T14:30:00.000Z,14.53
2022-11-27T14:45:00.000Z,15.96
2022-11-27T15:00:00.000Z,25.28
2022-11-27T15:15:00.000Z,14.32
2022-11-27T15:30:00.000Z,14.22
2022-11-27T15:45:00.000Z,16.81
2022-11-27T16:00:00.000Z,19.29
2022-11-27T16:15:00.000Z,19.95
2022-11-27T16:30:00.000Z,21.47
2022-11-27T16:45:00.000Z,19.99
2022-11-27T17:00:00.000Z,20.59
2022-11-27T17:15:00.000Z,33.34
2022-11-27T17:30:00.000Z,20.29
2022-11-27T17:45:00.000Z,22.74
2022-11-27T18:00:00.000Z,23.35
2022-11-27T18:15:00.000Z,19.18
2022-11-27T18:30:00.000Z,16.81
2022-11-27T18:45:00.000Z,16.18
2022-11-27T19:00:00.000Z,24.27
2022-11-27T19:15:00.000Z,20.01
2022-11-27T19:30:00.000Z,18.71
2022-11-27T19:45:00.000Z,15.75
2022-11-27T20:00:00.000Z,15.35
2022-11-27T20:15:00.000Z,25.59
2022-11-27T20:30:00.000Z,26.73
2022-11-27T20:45:00.000Z,26.72
2022-11-27T21:00:00.000Z,26.65
2022-11-27T21:15:00.000Z,25.71
2022-11-27T21:30:00.000Z,28.27
2022-11-27T21:45:00.000Z,30.13
2022-11-27T22:00:00.000Z,29.54
2022-11-27T22:15:00.000Z,28.49
2022-11-27T22:30:00.000Z,27.81
2022-11-27T22:45:00.000Z,22.2
2022-11-27T23:00:00.000Z,17.84
2022-11-27T23:15:00.000Z,16.59
2022-11-27T23:30:00.000Z,16.02
2022-11-27T23:45:00.000Z,18.2
